createdAt,value
2018-04-24T00:01:39.437Z,99065.05
2018-04-24T00:04:08.917Z,99059.12
2018-04-24T00:06:37.560Z,99064.58
2018-04-24T00:09:07.115Z,99066.70
2018-04-24T00:11:35.773Z,99069.39
2018-04-24T00:14:04.760Z,99060.81
2018-04-24T00:16:34.082Z,99053.36
2018-04-24T00:19:02.921Z,99052.09
2018-04-24T00:21:31.554Z,99053.19
2018-04-24T00:24:00.921Z,99049.39
2018-04-24T00:26:29.659Z,99043.61
2018-04-24T00:28:58.370Z,99050.16
2018-04-24T00:31:27.004Z,99048.72
2018-04-24T00:33:56.418Z,99050.16
2018-04-24T00:36:25.016Z,99039.50
2018-04-24T00:38:53.613Z,99037.34
2018-04-24T00:41:22.297Z,99032.47
2018-04-24T00:43:50.942Z,99039.53
2018-04-24T00:46:20.299Z,99035.35
2018-04-24T00:48:49.500Z,99039.38
2018-04-24T00:51:18.468Z,99041.91
2018-04-24T00:53:47.270Z,99049.98
2018-04-24T00:56:15.879Z,99048.25
2018-04-24T00:58:44.697Z,99050.05
2018-04-24T01:01:13.241Z,99049.77
2018-04-24T01:03:42.542Z,99043.17
2018-04-24T01:06:11.079Z,99040.25
2018-04-24T01:08:39.807Z,99035.20
2018-04-24T01:11:08.485Z,99048.48
2018-04-24T01:13:37.341Z,99050.56
2018-04-24T01:16:06.292Z,99047.73
2018-04-24T01:18:35.158Z,99042.03
2018-04-24T01:21:04.489Z,99040.49
2018-04-24T01:23:33.981Z,99046.23
2018-04-24T01:26:02.821Z,99044.88
2018-04-24T01:28:31.937Z,99048.65
2018-04-24T01:31:00.620Z,99050.10
2018-04-24T01:33:29.629Z,99054.48
2018-04-24T01:35:58.288Z,99056.37
2018-04-24T01:38:27.080Z,99060.36
2018-04-24T01:40:56.065Z,99061.24
2018-04-24T01:43:24.947Z,99063.39
2018-04-24T01:45:53.604Z,99062.20
2018-04-24T01:48:22.331Z,99059.91
2018-04-24T01:53:24.939Z,99061.77
2018-04-24T01:55:53.539Z,99059.55
2018-04-24T01:58:22.080Z,99060.86
2018-04-24T02:00:50.860Z,99057.59
2018-04-24T02:03:20.330Z,99064.97
2018-04-24T02:05:48.950Z,99061.67
2018-04-24T02:08:19.321Z,99059.86
2018-04-24T02:10:48.064Z,99060.36
2018-04-24T02:13:16.742Z,99058.48
2018-04-24T02:15:45.353Z,99055.39
2018-04-24T02:18:14.549Z,99048.78
2018-04-24T02:20:44.458Z,99053.66
2018-04-24T02:23:13.992Z,99045.66
2018-04-24T02:25:43.362Z,99044.34
2018-04-24T02:28:11.881Z,99042.11
2018-04-24T02:30:41.209Z,99049.33
2018-04-24T02:33:09.746Z,99047.03
2018-04-24T02:35:39.210Z,99043.41
2018-04-24T02:38:07.922Z,99045.89
2018-04-24T02:40:36.585Z,99047.05
2018-04-24T02:43:05.983Z,99045.75
2018-04-24T02:45:34.525Z,99049.66
2018-04-24T02:48:04.286Z,99063.83
2018-04-24T02:50:33.443Z,99060.17
2018-04-24T02:53:02.326Z,99062.55
2018-04-24T02:55:30.897Z,99059.31
2018-04-24T02:57:59.540Z,99045.02
2018-04-24T03:00:28.997Z,99043.42
2018-04-24T03:02:57.755Z,99042.93
2018-04-24T03:05:26.506Z,99051.20
2018-04-24T03:07:55.141Z,99060.85
2018-04-24T03:10:24.258Z,99061.09
2018-04-24T03:12:53.573Z,99058.30
2018-04-24T03:15:22.375Z,99060.66
2018-04-24T03:17:51.029Z,99055.59
2018-04-24T03:20:20.216Z,99055.39
2018-04-24T03:22:49.237Z,99057.86
2018-04-24T03:25:18.842Z,99050.61
2018-04-24T03:27:48.837Z,99055.34
2018-04-24T03:30:17.865Z,99047.91
2018-04-24T03:32:46.471Z,99050.13
2018-04-24T03:35:15.059Z,99049.31
2018-04-24T03:37:43.797Z,99051.53
2018-04-24T03:40:12.531Z,99052.23
2018-04-24T03:45:16.405Z,99063.65
2018-04-24T03:47:46.422Z,99066.34
2018-04-24T03:50:15.311Z,99071.22
2018-04-24T03:52:43.994Z,99079.16
2018-04-24T03:55:12.630Z,99086.19
2018-04-24T03:57:41.323Z,99087.75
2018-04-24T04:00:10.769Z,99085.52
2018-04-24T04:02:39.405Z,99085.56
2018-04-24T04:05:08.839Z,99077.77
2018-04-24T04:07:37.401Z,99076.03
2018-04-24T04:10:06.862Z,99085.30
2018-04-24T04:12:36.273Z,99076.63
2018-04-24T04:15:04.940Z,99081.72
2018-04-24T04:17:51.430Z,99095.38
2018-04-24T04:20:38.262Z,99100.17
2018-04-24T04:23:24.733Z,99101.39
2018-04-24T04:25:53.462Z,99106.75
2018-04-24T04:28:23.230Z,99111.55
2018-04-24T04:30:52.644Z,99108.02
2018-04-24T04:33:21.367Z,99106.34
2018-04-24T04:35:50.330Z,99109.03
2018-04-24T04:38:19.258Z,99106.37
2018-04-24T04:40:48.051Z,99101.01
2018-04-24T04:43:16.748Z,99112.47
2018-04-24T04:45:45.335Z,99116.66
2018-04-24T04:48:14.729Z,99113.58
2018-04-24T04:50:43.389Z,99119.02
2018-04-24T04:53:12.161Z,99120.31
2018-04-24T04:55:41.705Z,99120.12
2018-04-24T04:58:10.382Z,99127.14
2018-04-24T05:00:39.809Z,99123.93
2018-04-24T05:03:09.220Z,99121.50
2018-04-24T05:05:38.167Z,99123.77
2018-04-24T05:08:07.614Z,99124.00
2018-04-24T05:13:10.200Z,99130.14
2018-04-24T05:15:38.809Z,99142.13
2018-04-24T05:18:07.502Z,99137.59
2018-04-24T05:20:36.237Z,99136.34
2018-04-24T05:23:05.684Z,99141.61
2018-04-24T05:25:34.297Z,99137.89
2018-04-24T05:28:02.870Z,99137.99
2018-04-24T05:30:31.474Z,99145.86
2018-04-24T05:33:00.170Z,99142.42
2018-04-24T05:35:29.078Z,99143.61
2018-04-24T05:37:58.415Z,99148.69
2018-04-24T05:40:28.719Z,99150.67
2018-04-24T05:42:57.393Z,99151.02
2018-04-24T05:45:26.125Z,99152.80
2018-04-24T05:47:54.687Z,99156.45
2018-04-24T05:50:24.231Z,99151.91
2018-04-24T05:52:52.822Z,99156.52
2018-04-24T05:55:22.265Z,99159.08
2018-04-24T05:57:50.934Z,99157.34
2018-04-24T06:00:19.508Z,99157.16
2018-04-24T06:07:55.769Z,99148.45
2018-04-24T06:10:24.413Z,99154.06
2018-04-24T06:12:53.979Z,99162.34
2018-04-24T06:15:22.605Z,99164.30
2018-04-24T06:20:25.421Z,99170.98
2018-04-24T06:22:54.046Z,99170.15
2018-04-24T06:25:22.759Z,99162.80
2018-04-24T06:27:51.834Z,99167.83
2018-04-24T06:30:21.258Z,99165.03
2018-04-24T06:32:50.176Z,99167.50
2018-04-24T06:35:18.902Z,99163.47
2018-04-24T06:37:47.675Z,99162.16
2018-04-24T06:40:17.355Z,99152.70
2018-04-24T06:42:46.192Z,99155.42
2018-04-24T06:45:15.893Z,99156.56
2018-04-24T06:47:44.716Z,99148.92
2018-04-24T06:50:13.467Z,99146.23
2018-04-24T06:52:42.989Z,99144.50
2018-04-24T06:55:11.615Z,99147.83
2018-04-24T06:57:41.211Z,99153.13
2018-04-24T07:00:11.006Z,99157.05
2018-04-24T07:02:40.020Z,99157.70
2018-04-24T07:05:08.719Z,99159.09
2018-04-24T07:07:37.436Z,99154.64
2018-04-24T07:10:06.084Z,99151.05
2018-04-24T07:12:35.537Z,99149.29
2018-04-24T07:15:04.307Z,99146.22
2018-04-24T07:17:33.304Z,99144.06
2018-04-24T07:20:02.894Z,99147.98
2018-04-24T07:22:31.702Z,99161.52
2018-04-24T07:25:00.721Z,99154.19
2018-04-24T07:27:29.377Z,99160.62
2018-04-24T07:29:58.703Z,99157.23
2018-04-24T07:32:27.876Z,99157.09
2018-04-24T07:34:56.616Z,99165.34
2018-04-24T07:37:25.427Z,99171.41
2018-04-24T07:39:54.190Z,99168.48
2018-04-24T07:42:22.917Z,99172.03
2018-04-24T07:44:51.609Z,99173.26
2018-04-24T07:47:20.201Z,99177.72
2018-04-24T07:49:48.899Z,99181.50
2018-04-24T07:52:18.343Z,99178.23
2018-04-24T07:54:46.954Z,99179.16
2018-04-24T07:57:15.536Z,99183.98
2018-04-24T08:02:19.454Z,99181.36
2018-04-24T08:04:48.119Z,99181.52
2018-04-24T08:07:16.725Z,99186.49
2018-04-24T08:09:45.398Z,99178.71
2018-04-24T08:12:14.060Z,99188.47
2018-04-24T08:17:16.477Z,99183.52
2018-04-24T08:19:45.390Z,99183.45
2018-04-24T08:22:14.117Z,99180.69
2018-04-24T08:24:43.022Z,99186.79
2018-04-24T08:27:12.813Z,99184.34
2018-04-24T08:29:42.688Z,99188.33
2018-04-24T08:32:11.685Z,99190.58
2018-04-24T08:34:40.615Z,99189.28
2018-04-24T08:37:11.980Z,99183.95
2018-04-24T08:39:40.779Z,99199.23
2018-04-24T08:42:09.607Z,99196.52
2018-04-24T08:44:38.355Z,99193.85
2018-04-24T08:47:07.842Z,99196.95
2018-04-24T08:49:36.693Z,99191.72
2018-04-24T08:52:06.172Z,99191.80
2018-04-24T08:54:35.726Z,99189.98
2018-04-24T08:57:06.111Z,99196.98
2018-04-24T08:59:35.711Z,99201.55
2018-04-24T09:02:05.042Z,99191.63
2018-04-24T09:04:34.510Z,99192.55
2018-04-24T09:07:04.079Z,99199.61
2018-04-24T09:09:33.749Z,99195.37
2018-04-24T09:12:03.784Z,99195.36
2018-04-24T09:14:33.227Z,99196.09
2018-04-24T09:17:02.042Z,99199.87
2018-04-24T09:19:30.815Z,99188.16
2018-04-24T09:22:00.809Z,99195.98
2018-04-24T09:24:30.364Z,99199.31
2018-04-24T09:26:59.968Z,99197.69
2018-04-24T09:29:30.031Z,99192.26
2018-04-24T09:31:59.712Z,99200.45
2018-04-24T09:34:28.705Z,99190.31
2018-04-24T09:36:57.611Z,99188.20
2018-04-24T09:39:26.641Z,99190.86
2018-04-24T09:41:55.520Z,99189.58
2018-04-24T09:44:26.915Z,99195.96
2018-04-24T09:46:57.169Z,99192.72
2018-04-24T09:49:27.187Z,99188.75
2018-04-24T09:51:57.053Z,99183.17
2018-04-24T09:54:26.906Z,99189.85
2018-04-24T09:56:57.795Z,99191.46
2018-04-24T09:59:27.479Z,99185.87
2018-04-24T10:01:58.457Z,99177.13
2018-04-24T10:04:28.346Z,99180.36
2018-04-24T10:06:57.116Z,99178.37
2018-04-24T10:09:25.966Z,99176.56
2018-04-24T10:11:55.463Z,99183.11
2018-04-24T10:14:25.432Z,99176.00
2018-04-24T10:16:54.375Z,99175.17
2018-04-24T10:19:23.273Z,99173.14
2018-04-24T10:21:52.167Z,99175.73
2018-04-24T10:24:20.796Z,99176.87
2018-04-24T10:26:49.611Z,99173.97
2018-04-24T10:29:19.336Z,99175.36
2018-04-24T10:31:48.408Z,99163.94
2018-04-24T10:34:18.459Z,99162.34
2018-04-24T10:36:48.195Z,99171.09
2018-04-24T10:39:17.534Z,99172.38
2018-04-24T10:41:46.866Z,99169.22
2018-04-24T10:44:16.179Z,99168.09
2018-04-24T10:46:44.932Z,99176.72
2018-04-24T10:49:14.489Z,99174.55
2018-04-24T10:51:44.652Z,99166.75
2018-04-24T10:54:14.490Z,99164.22
2018-04-24T10:56:43.498Z,99179.13
2018-04-24T10:59:13.033Z,99162.12
2018-04-24T11:01:42.239Z,99158.42
2018-04-24T11:04:11.162Z,99166.86
2018-04-24T11:06:40.434Z,99147.91
2018-04-24T11:09:10.748Z,99149.59
2018-04-24T11:11:40.597Z,99141.83
2018-04-24T11:14:10.899Z,99148.63
2018-04-24T11:16:40.487Z,99139.68
2018-04-24T11:19:10.417Z,99150.78
2018-04-24T11:21:39.407Z,99143.17
2018-04-24T11:24:08.297Z,99140.52
2018-04-24T11:26:37.195Z,99139.27
2018-04-24T11:29:05.898Z,99147.90
2018-04-24T11:31:34.859Z,99141.20
2018-04-24T11:34:04.064Z,99141.87
2018-04-24T11:36:34.618Z,99140.45
2018-04-24T11:39:04.475Z,99144.61
2018-04-24T11:44:07.225Z,99143.52
2018-04-24T11:46:35.983Z,99137.68
2018-04-24T11:49:04.716Z,99137.95
2018-04-24T11:51:33.573Z,99134.98
2018-04-24T11:54:02.813Z,99135.98
2018-04-24T11:56:32.659Z,99131.31
2018-04-24T11:59:02.064Z,99137.72
2018-04-24T12:01:31.656Z,99136.91
2018-04-24T12:04:01.453Z,99132.16
2018-04-24T12:06:30.088Z,99131.53
2018-04-24T12:08:59.664Z,99134.84
2018-04-24T12:11:28.638Z,99121.83
2018-04-24T12:13:58.479Z,99132.91
2018-04-24T12:16:27.226Z,99124.03
2018-04-24T12:18:57.116Z,99122.60
2018-04-24T12:21:26.808Z,99118.28
2018-04-24T12:23:55.481Z,99115.41
2018-04-24T12:26:24.396Z,99115.55
2018-04-24T12:28:53.871Z,99118.23
2018-04-24T12:31:24.181Z,99118.75
2018-04-24T12:33:53.035Z,99120.08
2018-04-24T12:36:23.217Z,99109.75
2018-04-24T12:38:52.088Z,99106.03
2018-04-24T12:41:21.981Z,99111.16
2018-04-24T12:43:50.953Z,99109.03
2018-04-24T12:46:19.745Z,99105.23
2018-04-24T12:48:49.851Z,99117.52
2018-04-24T12:51:19.359Z,99099.11
2018-04-24T12:53:48.560Z,99110.37
2018-04-24T12:56:18.421Z,99110.08
2018-04-24T12:58:49.563Z,99110.21
2018-04-24T13:01:19.290Z,99105.66
2018-04-24T13:03:49.320Z,99094.64
2018-04-24T13:06:18.650Z,99093.22
2018-04-24T13:08:47.469Z,99092.94
2018-04-24T13:11:16.293Z,99090.85
2018-04-24T13:13:45.291Z,99078.03
2018-04-24T13:16:15.343Z,99088.91
2018-04-24T13:18:44.820Z,99078.28
2018-04-24T13:21:14.090Z,99084.64
2018-04-24T13:23:44.901Z,99073.19
2018-04-24T13:26:13.966Z,99082.44
2018-04-24T13:28:42.960Z,99073.70
2018-04-24T13:31:12.204Z,99073.24
2018-04-24T13:33:41.271Z,99066.41
2018-04-24T13:36:11.055Z,99066.44
2018-04-24T13:38:40.437Z,99058.00
2018-04-24T13:41:09.505Z,99060.66
2018-04-24T13:43:38.921Z,99055.42
2018-04-24T13:46:08.835Z,99060.89
2018-04-24T13:48:39.079Z,99062.89
2018-04-24T13:51:08.719Z,99052.55
2018-04-24T13:53:38.356Z,99051.61
2018-04-24T13:56:07.278Z,99051.27
2018-04-24T13:58:36.465Z,99058.10
2018-04-24T14:01:05.250Z,99054.26
2018-04-24T14:03:34.156Z,99053.37
2018-04-24T14:06:03.865Z,99053.38
2018-04-24T14:08:32.705Z,99038.06
2018-04-24T14:11:01.551Z,99044.38
2018-04-24T14:13:30.631Z,99044.91
2018-04-24T14:15:59.565Z,99043.26
2018-04-24T14:18:28.874Z,99046.23
2018-04-24T14:20:59.395Z,99032.74
2018-04-24T14:23:29.014Z,99039.77
2018-04-24T14:25:59.301Z,99032.31
2018-04-24T14:28:28.275Z,99033.75
2018-04-24T14:30:58.037Z,99027.09
2018-04-24T14:33:26.751Z,99038.23
2018-04-24T14:35:56.434Z,99030.06
2018-04-24T14:38:25.940Z,99026.39
2018-04-24T14:40:55.437Z,99037.59
2018-04-24T14:43:24.387Z,99034.41
2018-04-24T14:45:54.432Z,99036.02
2018-04-24T14:48:24.451Z,99026.35
2018-04-24T14:50:56.423Z,99027.77
2018-04-24T14:53:27.570Z,99021.19
2018-04-24T14:55:56.601Z,99019.97
2018-04-24T14:58:25.610Z,99022.67
2018-04-24T15:00:54.531Z,99022.76
2018-04-24T15:03:24.343Z,99022.93
2018-04-24T15:05:53.165Z,99023.22
2018-04-24T15:08:22.175Z,99022.09
2018-04-24T15:10:51.076Z,99021.69
2018-04-24T15:13:20.347Z,99022.22
2018-04-24T15:15:51.660Z,99023.14
2018-04-24T15:18:21.823Z,99018.87
2018-04-24T15:20:51.003Z,99018.27
2018-04-24T15:23:20.369Z,99017.98
2018-04-24T15:25:49.478Z,99025.92
2018-04-24T15:30:54.173Z,99030.69
2018-04-24T15:33:25.628Z,99026.05
2018-04-24T15:35:55.786Z,99019.39
2018-04-24T15:38:26.821Z,99018.10
2018-04-24T15:40:57.990Z,99022.58
2018-04-24T15:43:27.929Z,99023.63
2018-04-24T15:46:00.737Z,99016.18
2018-04-24T15:48:32.284Z,99018.11
2018-04-24T15:51:05.560Z,99014.09
2018-04-24T15:53:36.249Z,99018.37
2018-04-24T15:56:07.181Z,99014.14
2018-04-24T15:58:36.157Z,99008.10
2018-04-24T16:01:05.479Z,99010.24
2018-04-24T16:03:35.196Z,99009.61
2018-04-24T16:06:04.253Z,99006.86
2018-04-24T16:08:34.442Z,99007.05
2018-04-24T16:11:03.193Z,99008.75
2018-04-24T16:13:32.974Z,99008.42
2018-04-24T16:16:01.815Z,99008.25
2018-04-24T16:18:31.173Z,99007.13
2018-04-24T16:21:05.672Z,99003.56
2018-04-24T16:23:35.371Z,99001.70
2018-04-24T16:26:04.352Z,98995.63
2018-04-24T16:28:33.272Z,98999.36
2018-04-24T16:31:01.891Z,99005.10
2018-04-24T16:33:30.894Z,99009.14
2018-04-24T16:35:59.729Z,99009.67
2018-04-24T16:38:28.939Z,99006.98
2018-04-24T16:40:58.728Z,99011.19
2018-04-24T16:43:28.602Z,99011.88
2018-04-24T16:45:57.357Z,99015.41
2018-04-24T16:48:28.058Z,99010.55
2018-04-24T16:50:58.143Z,99013.38
2018-04-24T16:53:27.172Z,99017.19
2018-04-24T16:55:56.250Z,99017.33
2018-04-24T16:58:25.253Z,99013.46
2018-04-24T17:00:53.907Z,99012.80
2018-04-24T17:03:22.519Z,99016.91
2018-04-24T17:05:51.138Z,99014.74
2018-04-24T17:08:20.862Z,99010.30
2018-04-24T17:10:50.425Z,99011.66
2018-04-24T17:13:19.178Z,99007.68
2018-04-24T17:15:47.878Z,99012.78
2018-04-24T17:18:17.554Z,99009.13
2018-04-24T17:20:48.835Z,99016.25
2018-04-24T17:23:18.080Z,99017.72
2018-04-24T17:25:48.444Z,99021.12
2018-04-24T17:28:17.198Z,99016.10
2018-04-24T17:30:46.044Z,99015.05
2018-04-24T17:33:15.476Z,99013.17
2018-04-24T17:35:44.277Z,99011.63
2018-04-24T17:38:13.238Z,99015.23
2018-04-24T17:40:42.275Z,99012.27
2018-04-24T17:43:10.964Z,99010.05
2018-04-24T17:45:40.870Z,99010.59
2018-04-24T17:48:10.309Z,99010.00
2018-04-24T17:50:39.545Z,99017.41
2018-04-24T17:53:09.052Z,99008.58
2018-04-24T17:55:38.418Z,99015.92
2018-04-24T17:58:07.158Z,99019.66
2018-04-24T18:00:36.055Z,99021.00
2018-04-24T18:03:04.562Z,99017.86
2018-04-24T18:05:33.470Z,99016.44
2018-04-24T18:08:02.287Z,99020.18
2018-04-24T18:10:31.054Z,99021.55
2018-04-24T18:13:00.599Z,99023.64
2018-04-24T18:15:29.528Z,99026.78
2018-04-24T18:17:59.185Z,99018.28
2018-04-24T18:20:29.092Z,99026.47
2018-04-24T18:22:57.900Z,99023.54
2018-04-24T18:25:27.026Z,99028.81
2018-04-24T18:27:55.949Z,99021.67
2018-04-24T18:30:24.818Z,99027.48
2018-04-24T18:32:54.840Z,99035.05
2018-04-24T18:35:24.485Z,99038.97
2018-04-24T18:37:53.177Z,99037.89
2018-04-24T18:42:57.612Z,99043.23
2018-04-24T18:45:27.241Z,99050.47
2018-04-24T18:47:56.219Z,99048.11
2018-04-24T18:50:25.427Z,99049.89
2018-04-24T18:52:54.606Z,99051.33
2018-04-24T18:55:23.840Z,99052.62
2018-04-24T18:57:54.313Z,99055.33
2018-04-24T19:00:23.779Z,99059.26
2018-04-24T19:02:52.690Z,99059.45
2018-04-24T19:05:22.147Z,99061.55
2018-04-24T19:07:52.380Z,99065.75
2018-04-24T19:10:23.391Z,99070.31
2018-04-24T19:12:52.982Z,99078.48
2018-04-24T19:15:23.605Z,99074.56
2018-04-24T19:17:52.499Z,99081.00
2018-04-24T19:20:21.697Z,99085.40
2018-04-24T19:22:50.433Z,99084.76
2018-04-24T19:25:24.871Z,99086.84
2018-04-24T19:27:53.754Z,99085.84
2018-04-24T19:30:22.689Z,99087.91
2018-04-24T19:32:53.033Z,99088.77
2018-04-24T19:35:23.492Z,99090.86
2018-04-24T19:37:53.748Z,99097.05
2018-04-24T19:40:28.210Z,99091.45
2018-04-24T19:42:58.398Z,99091.50
2018-04-24T19:45:28.438Z,99087.00
2018-04-24T19:47:58.159Z,99088.56
2018-04-24T19:53:02.585Z,99094.39
2018-04-24T19:55:32.245Z,99090.02
2018-04-24T19:58:00.960Z,99096.13
2018-04-24T20:00:31.890Z,99091.12
2018-04-24T20:03:01.688Z,99092.78
2018-04-24T20:08:05.636Z,99093.41
2018-04-24T20:13:10.243Z,99095.69
2018-04-24T20:15:40.549Z,99095.48
2018-04-24T20:18:09.622Z,99097.97
2018-04-24T20:20:38.556Z,99099.03
2018-04-24T20:23:07.489Z,99098.91
2018-04-24T20:25:37.124Z,99100.03
2018-04-24T20:28:06.045Z,99099.55
2018-04-24T20:30:35.649Z,99101.96
2018-04-24T20:33:05.681Z,99096.55
2018-04-24T20:35:34.966Z,99097.81
2018-04-24T20:38:05.071Z,99090.20
2018-04-24T20:40:34.716Z,99093.55
2018-04-24T20:43:05.115Z,99094.14
2018-04-24T20:45:35.423Z,99094.22
2018-04-24T20:48:06.257Z,99091.63
2018-04-24T20:50:36.047Z,99098.20
2018-04-24T20:58:15.127Z,99102.69
2018-04-24T21:03:19.741Z,99113.76
2018-04-24T21:05:49.431Z,99108.14
2018-04-24T21:08:20.326Z,99111.52
2018-04-24T21:10:50.382Z,99108.27
2018-04-24T21:13:20.551Z,99112.78
2018-04-24T21:15:50.196Z,99113.34
2018-04-24T21:18:20.469Z,99108.97
2018-04-24T21:20:49.294Z,99107.69
2018-04-24T21:25:51.992Z,99110.18
2018-04-24T21:28:20.799Z,99106.06
2018-04-24T21:30:50.670Z,99103.95
2018-04-24T21:33:19.665Z,99104.28
2018-04-24T21:35:48.787Z,99098.92
2018-04-24T21:38:18.857Z,99104.95
2018-04-24T21:40:48.864Z,99099.31
2018-04-24T21:43:18.763Z,99103.03
2018-04-24T21:45:48.574Z,99098.84
2018-04-24T21:48:18.028Z,99106.38
2018-04-24T21:50:46.812Z,99109.98
2018-04-24T21:53:15.469Z,99106.06
2018-04-24T21:55:44.117Z,99110.45
2018-04-24T21:58:13.349Z,99109.16
2018-04-24T22:00:43.590Z,99107.14
2018-04-24T22:03:12.313Z,99104.36
2018-04-24T22:05:44.103Z,99101.91
2018-04-24T22:08:13.463Z,99109.75
2018-04-24T22:10:43.187Z,99109.19
2018-04-24T22:13:12.830Z,99109.60
2018-04-24T22:15:45.957Z,99113.91
2018-04-24T22:18:15.535Z,99109.09
2018-04-24T22:20:44.664Z,99112.13
2018-04-24T22:23:13.772Z,99106.59
2018-04-24T22:28:17.377Z,99102.06
2018-04-24T22:30:47.115Z,99103.34
2018-04-24T22:33:16.964Z,99102.44
2018-04-24T22:35:45.920Z,99102.34
2018-04-24T22:38:15.489Z,99113.45
2018-04-24T22:43:19.876Z,99113.30
2018-04-24T22:45:48.831Z,99115.22
2018-04-24T22:48:17.715Z,99120.50
2018-04-24T22:50:46.649Z,99119.09
2018-04-24T22:53:15.679Z,99119.74
2018-04-24T22:55:46.197Z,99119.49
2018-04-24T23:00:48.842Z,99122.54
2018-04-24T23:03:17.535Z,99125.41
2018-04-24T23:05:46.561Z,99131.87
2018-04-24T23:08:16.303Z,99130.13
2018-04-24T23:11:03.061Z,99126.95
2018-04-24T23:13:49.808Z,99131.08
2018-04-24T23:16:36.411Z,99128.76
2018-04-24T23:21:56.692Z,99127.79
2018-04-24T23:24:25.367Z,99123.13
2018-04-24T23:26:54.153Z,99121.27
2018-04-24T23:29:22.937Z,99122.24
2018-04-24T23:31:52.508Z,99117.34
2018-04-24T23:34:21.298Z,99115.90
2018-04-24T23:36:50.261Z,99113.83
2018-04-24T23:39:19.029Z,99109.34
2018-04-24T23:41:47.734Z,99106.72
2018-04-24T23:44:16.629Z,99107.56
2018-04-24T23:46:45.371Z,99099.56
2018-04-24T23:49:14.773Z,99106.05
2018-04-24T23:51:44.364Z,99107.56
2018-04-24T23:54:13.886Z,99106.05
2018-04-24T23:56:43.340Z,99107.95
2018-04-24T23:59:12.752Z,99100.55
